Time;durP1;ratioP1;P1;durP2;ratioP2;P2;SDS_P1;SDS_P2;PMS_P1;PMS_P2;Temp;Humidity;BMP_temperature;BMP_pressure;BME280_temperature;BME280_humidity;BME280_pressure;Samples;Min_cycle;Max_cycle;Signal;HPM_P1;HPM_P2
2022/01/17 00:01:41;;;;;;;57.57;37.93;;;;;;;1.75;72.62;100234.16;5050218;28;20627;-57
2022/01/17 00:04:10;;;;;;;57.57;36.63;;;;;;;1.78;72.20;100229.28;5054127;28;20590;-57
2022/01/17 00:06:39;;;;;;;57.97;37.90;;;;;;;1.77;71.77;100220.78;5050100;28;20548;-57
2022/01/17 00:09:06;;;;;;;60.53;39.57;;;;;;;1.76;72.31;100219.03;5050349;28;20241;-57
2022/01/17 00:11:34;;;;;;;61.30;38.10;;;;;;;1.82;71.77;100216.00;5058502;28;20203;-57
2022/01/17 00:14:04;;;;;;;62.47;38.03;;;;;;;1.83;71.85;100215.22;5071132;28;20290;-56
2022/01/17 00:16:40;;;;;;;59.73;38.13;;;;;;;1.84;71.81;100216.97;5073900;28;20306;-56
2022/01/17 00:19:30;;;;;;;57.17;36.40;;;;;;;1.81;71.75;100205.78;5074524;28;20194;-56
2022/01/17 00:21:57;;;;;;;62.10;37.87;;;;;;;1.88;71.52;100213.84;5074215;28;20199;-56
2022/01/17 00:24:24;;;;;;;62.97;44.10;;;;;;;1.90;71.54;100221.53;5073475;28;20498;-56
2022/01/17 00:26:52;;;;;;;59.37;40.23;;;;;;;1.98;71.09;100225.44;5073772;28;20230;-56
2022/01/17 00:29:19;;;;;;;65.53;38.77;;;;;;;1.95;70.92;100215.97;5073796;28;20231;-56
2022/01/17 00:31:46;;;;;;;66.40;40.20;;;;;;;2.01;71.12;100226.47;5054402;28;20304;-56
2022/01/17 00:34:13;;;;;;;69.07;39.27;;;;;;;1.99;71.27;100229.72;5053987;28;20203;-56
2022/01/17 00:36:40;;;;;;;64.40;38.20;;;;;;;1.91;71.37;100223.28;5071708;28;20290;-56
2022/01/17 00:39:08;;;;;;;54.03;36.50;;;;;;;1.82;71.30;100216.00;5073822;28;20685;-56
2022/01/17 00:41:35;;;;;;;60.93;36.70;;;;;;;1.77;71.68;100210.66;5073867;28;20191;-56
2022/01/17 00:44:03;;;;;;;64.13;39.00;;;;;;;1.72;72.26;100211.16;5073685;28;20662;-57
2022/01/17 00:46:30;;;;;;;61.97;39.43;;;;;;;1.65;72.03;100207.34;5073591;28;20192;-59
2022/01/17 00:48:57;;;;;;;67.80;39.17;;;;;;;1.65;72.45;100212.41;5073492;28;20594;-58
2022/01/17 00:51:24;;;;;;;61.87;39.70;;;;;;;1.64;72.30;100210.69;5073537;28;20622;-58
2022/01/17 00:53:51;;;;;;;60.37;38.73;;;;;;;1.61;72.49;100205.44;5073322;28;20667;-59
2022/01/17 00:56:23;;;;;;;53.97;35.33;;;;;;;1.45;71.82;100172.34;5073700;28;20278;-58
2022/01/17 00:58:50;;;;;;;58.80;37.73;;;;;;;1.67;72.16;100208.34;5073442;28;20202;-58
2022/01/17 01:01:17;;;;;;;60.27;37.47;;;;;;;1.68;71.62;100202.47;5073399;28;20198;-58
2022/01/17 01:03:45;;;;;;;53.90;36.67;;;;;;;1.63;72.07;100195.38;5073231;28;20676;-58
2022/01/17 01:06:12;;;;;;;67.10;38.13;;;;;;;1.66;71.83;100185.44;5073260;28;20202;-59
2022/01/17 01:08:39;;;;;;;51.53;32.73;;;;;;;1.65;72.08;100189.63;5073164;28;20219;-58
2022/01/17 01:11:06;;;;;;;53.57;34.67;;;;;;;1.48;71.96;100153.94;5073143;28;20198;-58
2022/01/17 01:13:34;;;;;;;45.77;31.47;;;;;;;1.62;71.61;100184.38;5073105;28;20282;-59
2022/01/17 01:16:23;;;;;;;48.43;32.40;;;;;;;1.57;71.57;100175.63;5073480;28;20198;-59
2022/01/17 01:19:08;;;;;;;52.47;34.30;;;;;;;1.55;72.34;100167.06;5072925;28;20192;-59
2022/01/17 01:21:48;;;;;;;48.30;33.57;;;;;;;1.50;71.64;100155.78;5072872;28;20276;-59
2022/01/17 01:29:48;;;;;;;51.23;35.10;;;;;;;1.53;72.26;100143.31;5073027;28;20194;-57
2022/01/17 01:32:19;;;;;;;52.40;35.07;;;;;;;1.53;71.83;100142.44;5073014;28;20287;-57
2022/01/17 01:34:51;;;;;;;55.83;34.63;;;;;;;1.51;72.15;100133.88;5072849;28;20278;-57
2022/01/17 01:37:18;;;;;;;55.87;35.00;;;;;;;1.48;72.47;100129.50;5072858;28;20191;-57
2022/01/17 01:39:49;;;;;;;59.03;36.63;;;;;;;1.52;72.71;100125.47;5072770;28;20278;-57
2022/01/17 01:42:18;;;;;;;57.77;36.03;;;;;;;1.35;72.22;100116.81;5073109;28;20261;-55
2022/01/17 01:44:50;;;;;;;56.63;36.40;;;;;;;1.33;72.67;100107.41;5072618;28;20226;-56
2022/01/17 01:47:20;;;;;;;56.90;35.83;;;;;;;1.32;73.25;100115.78;5072488;28;20215;-56
2022/01/17 01:49:47;;;;;;;54.50;33.80;;;;;;;1.37;73.32;100119.47;5072637;28;20290;-56
2022/01/17 01:52:14;;;;;;;53.07;35.00;;;;;;;1.26;73.04;100111.22;5072398;28;20187;-56
2022/01/17 01:54:41;;;;;;;55.33;35.53;;;;;;;1.27;73.77;100112.94;5072458;28;20196;-57
2022/01/17 01:57:08;;;;;;;57.53;36.30;;;;;;;1.23;73.84;100108.50;5072472;28;20291;-56
2022/01/17 01:59:37;;;;;;;54.07;33.00;;;;;;;1.11;74.13;100107.72;5072498;28;20214;-56
2022/01/17 02:02:06;;;;;;;52.57;33.77;;;;;;;1.04;73.92;100103.91;5072250;28;20199;-55
2022/01/17 02:04:33;;;;;;;47.57;32.50;;;;;;;0.96;74.08;100104.22;5072036;28;20187;-56
2022/01/17 02:07:00;;;;;;;51.50;32.60;;;;;;;0.87;74.71;100102.00;5072142;28;20192;-55
2022/01/17 02:09:27;;;;;;;52.83;32.40;;;;;;;0.87;74.25;100098.59;5072470;28;20195;-56
2022/01/17 02:11:54;;;;;;;44.80;30.60;;;;;;;0.86;74.30;100091.75;5071853;28;20192;-56
2022/01/17 02:14:21;;;;;;;44.87;30.80;;;;;;;0.83;74.99;100094.97;5072033;28;20366;-56
2022/01/17 02:16:50;;;;;;;45.40;29.60;;;;;;;0.77;74.50;100088.66;5071867;28;20207;-55
2022/01/17 02:19:21;;;;;;;49.93;30.17;;;;;;;0.81;75.03;100086.41;5071792;28;20184;-56
2022/01/17 02:21:50;;;;;;;49.73;29.87;;;;;;;0.80;74.87;100083.78;5072013;28;20197;-56
2022/01/17 02:24:20;;;;;;;46.90;29.13;;;;;;;0.86;74.74;100081.66;5071915;28;20639;-56
2022/01/17 02:26:49;;;;;;;43.90;29.07;;;;;;;0.88;74.43;100085.16;5072004;28;20188;-56
2022/01/17 02:29:16;;;;;;;45.50;28.53;;;;;;;0.80;75.23;100083.78;5071670;28;20223;-56
2022/01/17 02:31:44;;;;;;;44.70;27.23;;;;;;;0.74;75.18;100073.28;5071868;28;20304;-56
2022/01/17 02:34:12;;;;;;;42.77;27.40;;;;;;;0.70;74.90;100071.34;5071426;28;20282;-56
2022/01/17 02:36:39;;;;;;;41.87;26.57;;;;;;;0.67;75.43;100069.50;5071299;28;20198;-56
2022/01/17 02:39:08;;;;;;;42.50;26.13;;;;;;;0.72;74.99;100077.34;5071688;28;20184;-56
2022/01/17 02:41:36;;;;;;;36.23;24.73;;;;;;;0.76;74.96;100084.38;5071399;28;20187;-56
2022/01/17 02:44:04;;;;;;;37.10;23.67;;;;;;;0.77;74.86;100086.13;5071288;28;20191;-56
2022/01/17 02:46:31;;;;;;;36.97;24.03;;;;;;;0.80;75.14;100084.66;5071154;28;20279;-56
2022/01/17 02:49:01;;;;;;;36.93;24.50;;;;;;;0.77;74.35;100070.97;5071460;28;20238;-56
2022/01/17 02:51:28;;;;;;;38.53;24.77;;;;;;;0.80;74.35;100076.19;5071182;28;20290;-56
2022/01/17 02:53:56;;;;;;;41.13;25.40;;;;;;;0.74;75.21;100070.78;5071409;28;20191;-56
2022/01/17 02:56:25;;;;;;;41.27;25.87;;;;;;;0.76;74.99;100076.78;5071030;28;20257;-56
2022/01/17 02:58:52;;;;;;;37.37;25.10;;;;;;;0.76;74.59;100080.19;5071137;28;20644;-56
2022/01/17 03:01:21;;;;;;;45.08;27.13;;;;;;;0.71;75.02;100073.97;5071281;28;20433;-56
2022/01/17 03:03:49;;;;;;;41.40;26.93;;;;;;;0.70;75.30;100079.81;5071184;28;20196;-56
2022/01/17 03:06:17;;;;;;;38.83;26.73;;;;;;;0.69;75.47;100077.19;5071244;28;21116;-56
2022/01/17 03:08:46;;;;;;;39.43;27.10;;;;;;;0.75;74.69;100086.03;5071055;28;20223;-57
2022/01/17 03:11:14;;;;;;;40.70;27.93;;;;;;;0.79;74.41;100077.00;5070899;28;20207;-57
2022/01/17 03:13:43;;;;;;;41.30;26.70;;;;;;;0.77;74.81;100081.09;5070842;28;20658;-57
2022/01/17 03:16:14;;;;;;;45.83;31.80;;;;;;;0.71;74.64;100068.91;5070191;28;20438;-57
2022/01/17 03:18:42;;;;;;;38.97;27.23;;;;;;;0.78;74.97;100067.63;5070908;28;20245;-55
2022/01/17 03:21:11;;;;;;;40.33;26.40;;;;;;;0.67;74.84;100043.31;5070813;28;20202;-57
2022/01/17 03:23:39;;;;;;;42.83;27.80;;;;;;;0.68;74.73;100055.19;5070539;28;20192;-58
2022/01/17 03:26:07;;;;;;;38.33;26.37;;;;;;;0.65;75.47;100055.88;5070526;28;20271;-58
2022/01/17 03:28:35;;;;;;;40.63;27.43;;;;;;;0.68;75.47;100057.72;5070170;28;20228;-57
2022/01/17 03:31:04;;;;;;;51.23;27.83;;;;;;;0.63;75.84;100051.50;5070458;28;20379;-58
2022/01/17 03:33:31;;;;;;;42.40;27.67;;;;;;;0.54;75.52;100050.16;5070652;28;20287;-58
2022/01/17 03:35:59;;;;;;;39.37;25.50;;;;;;;0.58;75.95;100038.56;5070194;28;20188;-59
2022/01/17 03:38:27;;;;;;;38.57;24.17;;;;;;;0.61;74.87;100041.28;5070323;28;20188;-58
2022/01/17 03:40:55;;;;;;;41.00;25.33;;;;;;;0.57;75.33;100039.34;5070866;28;20611;-58
2022/01/17 03:43:23;;;;;;;37.33;25.63;;;;;;;0.54;75.63;100032.44;5070960;28;20943;-58
2022/01/17 03:45:51;;;;;;;40.57;26.40;;;;;;;0.55;75.26;100033.28;5070721;28;20290;-58
2022/01/17 03:48:20;;;;;;;35.67;23.97;;;;;;;0.52;75.86;100028.94;5069533;28;20216;-58
2022/01/17 03:50:48;;;;;;;36.90;24.27;;;;;;;0.49;75.30;100025.34;5070511;28;20278;-58
2022/01/17 03:53:15;;;;;;;34.10;23.57;;;;;;;0.45;75.98;100020.84;5070414;28;20312;-58
2022/01/17 03:55:42;;;;;;;36.23;23.13;;;;;;;0.36;75.11;100005.09;5070460;28;20195;-57
2022/01/17 03:58:10;;;;;;;33.33;22.73;;;;;;;0.31;75.40;100022.50;5070699;28;20191;-57
2022/01/17 04:00:39;;;;;;;31.52;24.48;;;;;;;0.30;75.83;100010.63;5069425;28;20524;-58
2022/01/17 04:03:08;;;;;;;30.70;22.70;;;;;;;0.41;75.27;100019.78;5070472;28;20194;-58
2022/01/17 04:05:37;;;;;;;33.90;21.40;;;;;;;0.44;75.42;100027.56;5070030;28;20188;-58
2022/01/17 04:08:05;;;;;;;36.37;23.47;;;;;;;0.43;76.43;100017.38;5070045;28;20215;-58
2022/01/17 04:10:31;;;;;;;39.00;24.03;;;;;;;0.48;75.48;100006.78;5070171;28;20690;-58
2022/01/17 04:13:03;;;;;;;34.10;22.73;;;;;;;0.47;75.33;100005.00;5070235;28;20274;-58
2022/01/17 04:15:31;;;;;;;36.37;24.33;;;;;;;0.40;75.58;99999.47;5070160;28;20249;-58
2022/01/17 04:17:58;;;;;;;34.30;22.73;;;;;;;0.45;74.97;99998.13;5070028;28;20287;-57
2022/01/17 04:20:27;;;;;;;38.40;23.57;;;;;;;0.39;76.10;100011.22;5070197;28;20207;-57
2022/01/17 04:22:57;;;;;;;45.73;23.83;;;;;;;0.32;76.47;100009.09;5070419;28;20226;-58
2022/01/17 04:25:25;;;;;;;34.77;23.20;;;;;;;0.43;75.95;100019.91;5069701;28;20191;-58
2022/01/17 04:27:53;;;;;;;35.70;24.37;;;;;;;0.38;75.37;100021.25;5069932;28;20238;-57
2022/01/17 04:30:21;;;;;;;32.40;22.90;;;;;;;0.39;76.10;100026.41;5070074;28;20690;-58
2022/01/17 04:32:49;;;;;;;37.80;24.10;;;;;;;0.33;76.25;100032.72;5069932;28;20590;-58
2022/01/17 04:35:22;;;;;;;35.50;24.67;;;;;;;0.37;75.91;100040.59;5069658;28;20196;-59
2022/01/17 04:37:51;;;;;;;37.47;24.37;;;;;;;0.34;76.31;100032.81;5070091;28;20192;-58
2022/01/17 04:40:19;;;;;;;34.70;23.03;;;;;;;0.27;76.74;100019.69;5070176;28;20199;-58
2022/01/17 04:42:48;;;;;;;34.43;23.33;;;;;;;0.25;76.28;100022.09;5070039;28;20198;-58
2022/01/17 04:45:17;;;;;;;38.27;24.73;;;;;;;0.31;76.56;100025.03;5069634;28;20191;-58
2022/01/17 04:47:48;;;;;;;31.30;22.63;;;;;;;0.33;75.83;100026.00;5069974;28;20264;-58
2022/01/17 04:50:17;;;;;;;37.60;23.63;;;;;;;0.26;75.93;100021.34;5069785;28;20299;-58
2022/01/17 04:52:44;;;;;;;36.90;24.47;;;;;;;0.29;75.73;100025.72;5069951;28;20241;-58
2022/01/17 04:55:14;;;;;;;35.63;24.53;;;;;;;0.29;75.81;100039.22;5069442;28;20275;-58
2022/01/17 04:57:44;;;;;;;34.20;22.70;;;;;;;0.18;75.95;100025.03;5069695;28;20658;-59
2022/01/17 05:00:13;;;;;;;33.90;22.97;;;;;;;0.20;76.13;100038.63;5071357;28;20188;-58
2022/01/17 05:02:42;;;;;;;36.27;23.30;;;;;;;0.16;76.66;100038.34;5073078;28;20194;-58
2022/01/17 05:05:10;;;;;;;36.93;24.63;;;;;;;0.14;76.45;100039.88;5073289;28;20192;-59
2022/01/17 05:07:38;;;;;;;40.03;25.13;;;;;;;0.11;76.91;100040.53;5072911;28;20198;-58
2022/01/17 05:10:08;;;;;;;37.87;22.77;;;;;;;-0.09;77.11;99996.31;5072944;28;20219;-60
2022/01/17 05:12:35;;;;;;;37.58;26.90;;;;;;;0.06;77.06;100024.22;5073118;28;20469;-59
2022/01/17 05:15:05;;;;;;;35.73;24.90;;;;;;;0.11;76.57;100019.47;5073135;28;20194;-60
2022/01/17 05:17:57;;;;;;;41.00;25.40;;;;;;;0.15;76.70;100029.88;5072815;28;20306;-59
2022/01/17 05:20:24;;;;;;;36.40;24.63;;;;;;;0.10;76.76;100021.13;5071052;28;20213;-59
2022/01/17 05:22:52;;;;;;;40.30;24.87;;;;;;;0.07;77.05;100017.50;5072552;28;20275;-59
2022/01/17 05:25:19;;;;;;;39.37;24.03;;;;;;;0.01;77.24;100012.94;5072905;28;20196;-59
2022/01/17 05:27:46;;;;;;;40.23;24.67;;;;;;;-0.08;77.22;100017.38;5072609;28;20314;-58
2022/01/17 05:30:17;;;;;;;37.97;26.17;;;;;;;-0.09;77.08;100015.63;5072377;28;20301;-59
2022/01/17 05:32:44;;;;;;;37.63;25.27;;;;;;;-0.08;78.21;100007.28;5072588;28;20207;-59
2022/01/17 05:35:12;;;;;;;38.60;24.93;;;;;;;-0.08;nan;100010.69;5072505;28;20278;-58
2022/01/17 05:37:39;;;;;;;32.97;23.33;;;;;;;-0.05;78.09;99999.91;5072875;28;20203;-59
2022/01/17 05:40:08;;;;;;;35.07;23.40;;;;;;;-0.11;78.04;99989.41;5072444;28;20191;-59
2022/01/17 05:42:35;;;;;;;39.80;25.00;;;;;;;-0.03;78.15;100008.47;5072697;28;20574;-60
2022/01/17 05:45:02;;;;;;;37.13;24.97;;;;;;;-0.07;78.02;100003.97;5072448;28;20194;-59
2022/01/17 05:47:31;;;;;;;37.10;25.10;;;;;;;-0.06;77.62;99994.00;5072174;28;20191;-59
2022/01/17 05:50:01;;;;;;;45.03;26.60;;;;;;;-0.05;78.14;99978.06;5072218;28;20693;-59
2022/01/17 05:52:28;;;;;;;37.40;24.63;;;;;;;-0.07;78.08;99986.31;5072605;28;20202;-59
2022/01/17 05:54:55;;;;;;;37.73;24.50;;;;;;;-0.09;78.49;99981.16;5072508;28;20195;-59
2022/01/17 05:57:22;;;;;;;37.93;24.33;;;;;;;-0.04;78.27;99992.44;5072201;28;20999;-58
2022/01/17 05:59:49;;;;;;;36.10;23.17;;;;;;;-0.21;77.68;99964.31;5072143;28;20622;-59
2022/01/17 06:02:16;;;;;;;36.03;23.27;;;;;;;-0.03;77.61;99990.78;5071970;28;20275;-59
2022/01/17 06:04:44;;;;;;;37.67;25.10;;;;;;;-0.24;77.85;99965.00;5071940;28;20202;-60
2022/01/17 06:07:11;;;;;;;35.23;23.80;;;;;;;-0.08;78.09;99997.16;5072227;28;20192;-60
2022/01/17 06:09:38;;;;;;;34.03;24.00;;;;;;;-0.03;78.63;99998.38;5072146;28;20224;-59
2022/01/17 06:12:06;;;;;;;36.53;24.63;;;;;;;0.05;78.28;99993.81;5070747;28;20187;-59
2022/01/17 06:14:33;;;;;;;34.70;22.90;;;;;;;0.08;78.08;99987.31;5071973;28;20199;-59
2022/01/17 06:16:59;;;;;;;34.27;22.10;;;;;;;0.17;77.71;99992.06;5071464;28;20192;-59
2022/01/17 06:19:26;;;;;;;38.47;22.70;;;;;;;0.18;77.23;99998.88;5071559;28;20218;-60
2022/01/17 06:21:55;;;;;;;34.67;23.10;;;;;;;0.15;77.62;99986.91;5071522;28;20203;-59
2022/01/17 06:24:23;;;;;;;37.83;23.70;;;;;;;0.22;77.46;99999.16;5071812;28;20223;-59
2022/01/17 06:26:50;;;;;;;46.70;24.83;;;;;;;0.23;76.96;99990.81;5071780;28;20278;-59
2022/01/17 06:29:18;;;;;;;40.03;25.27;;;;;;;0.29;77.47;99985.28;5071297;28;20736;-60
2022/01/17 06:31:46;;;;;;;32.07;23.77;;;;;;;0.39;77.17;99977.50;5071496;28;20192;-58
2022/01/17 06:34:13;;;;;;;41.67;23.93;;;;;;;0.47;76.66;99979.75;5071187;28;20658;-60
2022/01/17 06:36:42;;;;;;;36.07;23.63;;;;;;;0.50;76.97;99967.28;5071248;28;20187;-60
2022/01/17 06:39:11;;;;;;;44.70;27.53;;;;;;;0.59;76.62;99970.41;5070846;28;20282;-59
2022/01/17 06:41:39;;;;;;;50.33;31.73;;;;;;;0.62;75.67;99958.72;5070617;28;20183;-59
2022/01/17 06:44:07;;;;;;;54.27;35.07;;;;;;;0.76;76.13;99965.53;5070799;28;20268;-60
2022/01/17 06:46:34;;;;;;;53.60;34.77;;;;;;;0.79;75.72;99973.31;5070650;28;20279;-59
2022/01/17 06:49:01;;;;;;;55.73;34.13;;;;;;;0.89;75.44;99971.44;5073086;28;20212;-59
2022/01/17 06:51:29;;;;;;;55.07;35.37;;;;;;;0.95;75.20;99968.41;5073689;28;20210;-59
2022/01/17 06:53:56;;;;;;;53.77;33.07;;;;;;;0.92;74.36;99970.75;5072290;28;20191;-59
2022/01/17 06:56:24;;;;;;;47.33;33.63;;;;;;;0.95;74.37;99964.22;5070075;28;20187;-59
2022/01/17 06:58:51;;;;;;;51.50;34.83;;;;;;;1.01;75.25;99971.31;5070635;28;20278;-58
2022/01/17 07:01:20;;;;;;;51.17;34.37;;;;;;;1.06;75.02;99968.28;5070521;28;20196;-60
2022/01/17 07:03:47;;;;;;;49.83;34.10;;;;;;;1.42;75.20;99971.28;5071134;28;20187;-59
2022/01/17 07:06:14;;;;;;;49.10;35.57;;;;;;;2.54;72.04;99980.31;5070782;28;20195;-60
2022/01/17 07:08:41;;;;;;;59.33;40.80;;;;;;;2.83;67.75;99970.94;5070597;28;20192;-59
2022/01/17 07:11:08;;;;;;;77.17;47.63;;;;;;;2.33;68.35;99964.78;5070715;28;20192;-60
2022/01/17 07:13:37;;;;;;;70.88;51.85;;;;;;;2.09;70.15;99974.41;5069752;28;20528;-60
2022/01/17 07:16:04;;;;;;;59.03;42.20;;;;;;;2.06;70.54;99960.69;5070434;28;20274;-60
2022/01/17 07:18:31;;;;;;;58.53;41.20;;;;;;;2.02;70.86;99962.19;5070498;28;20195;-60
2022/01/17 07:20:58;;;;;;;63.47;40.00;;;;;;;1.99;71.53;99953.53;5070541;28;20184;-60
2022/01/17 07:23:25;;;;;;;39.60;28.07;;;;;;;1.99;70.91;99951.88;5069540;28;20552;-56
2022/01/17 07:25:52;;;;;;;36.97;25.13;;;;;;;2.06;69.94;99943.81;5066947;28;20248;-56
2022/01/17 07:28:19;;;;;;;36.63;24.97;;;;;;;2.10;68.57;99943.22;5069697;28;20714;-56
2022/01/17 07:30:47;;;;;;;40.17;24.33;;;;;;;2.13;66.50;99934.91;5070043;28;20306;-56
2022/01/17 07:33:14;;;;;;;36.87;23.80;;;;;;;2.09;65.83;99935.50;5070402;28;20199;-56
2022/01/17 07:35:41;;;;;;;32.27;22.43;;;;;;;2.16;65.46;99935.06;5070149;28;20200;-56
2022/01/17 07:38:08;;;;;;;37.90;23.93;;;;;;;2.21;65.07;99924.41;5070205;28;20196;-56
2022/01/17 07:40:35;;;;;;;34.57;22.70;;;;;;;2.32;64.42;99920.81;5070183;28;20554;-56
2022/01/17 07:43:02;;;;;;;44.43;26.20;;;;;;;2.40;64.14;99908.53;5069911;28;20611;-56
2022/01/17 07:45:31;;;;;;;41.90;25.53;;;;;;;2.44;64.04;99915.53;5069449;28;20199;-57
2022/01/17 07:50:44;;;;;;;41.42;29.58;;;;;;;2.72;63.54;99898.47;5066529;28;20544;-58
2022/01/17 07:53:13;;;;;;;36.60;25.67;;;;;;;2.86;63.14;99901.72;5069227;28;20190;-57
2022/01/17 07:55:40;;;;;;;38.87;25.57;;;;;;;2.90;62.40;99909.59;5067637;28;20203;-59
2022/01/17 07:58:07;;;;;;;38.47;26.67;;;;;;;2.92;62.03;99912.22;5069279;28;20617;-61
2022/01/17 08:00:34;;;;;;;36.40;24.73;;;;;;;3.03;61.60;99948.28;5069220;28;20602;-60
2022/01/17 08:03:05;;;;;;;40.10;24.77;;;;;;;3.14;60.82;99944.66;5069043;28;20264;-59
2022/01/17 08:05:32;;;;;;;33.23;24.40;;;;;;;3.24;59.77;99939.28;5069682;28;20927;-56
2022/01/17 08:07:58;;;;;;;46.30;28.73;;;;;;;3.43;59.62;99955.53;5069036;28;21278;-58
2022/01/17 08:10:25;;;;;;;37.50;25.67;;;;;;;3.68;59.56;99965.28;5070004;28;20342;-57
2022/01/17 08:12:52;;;;;;;42.30;23.83;;;;;;;3.77;59.08;99949.63;5070162;28;21033;-57
2022/01/17 08:15:19;;;;;;;35.50;22.70;;;;;;;3.91;58.11;99946.09;5070108;28;20211;-57
2022/01/17 08:17:47;;;;;;;37.43;24.00;;;;;;;4.07;58.62;99969.81;5069990;28;20199;-57
2022/01/17 08:20:16;;;;;;;32.00;21.67;;;;;;;4.17;58.19;99972.00;5069184;28;21011;-56
2022/01/17 08:22:45;;;;;;;34.27;21.33;;;;;;;4.17;57.89;99984.72;5068652;28;20618;-57
2022/01/17 08:25:12;;;;;;;26.10;17.97;;;;;;;4.49;56.91;100041.38;5068730;28;20646;-56
2022/01/17 08:27:39;;;;;;;35.70;20.00;;;;;;;4.69;57.31;100035.59;5069540;28;20227;-56
2022/01/17 08:30:07;;;;;;;26.93;18.47;;;;;;;4.79;55.28;100032.66;5069601;28;20314;-57
2022/01/17 08:32:34;;;;;;;28.67;15.77;;;;;;;5.22;53.79;100046.59;5069999;28;20331;-57
2022/01/17 08:35:01;;;;;;;21.53;12.60;;;;;;;5.57;53.29;99988.72;5070661;28;20282;-56
2022/01/17 08:37:31;;;;;;;17.13;9.27;;;;;;;5.91;51.16;99986.81;5072924;28;20191;-56
2022/01/17 08:39:59;;;;;;;16.95;10.00;;;;;;;6.14;49.37;99922.34;5072353;28;20942;-58
2022/01/17 08:42:26;;;;;;;11.97;7.77;;;;;;;6.60;49.08;99952.22;5072981;28;20182;-56
2022/01/17 08:44:56;;;;;;;11.20;7.63;;;;;;;6.87;47.44;99969.50;5072810;28;20707;-56
2022/01/17 08:47:23;;;;;;;10.70;7.00;;;;;;;6.85;47.55;99903.84;5072954;28;20293;-56
2022/01/17 08:49:50;;;;;;;8.13;6.43;;;;;;;7.18;47.89;99910.19;5072537;28;20206;-58
2022/01/17 08:52:17;;;;;;;12.07;7.40;;;;;;;7.32;46.76;99906.44;5072723;28;20290;-57
2022/01/17 08:54:46;;;;;;;9.63;6.97;;;;;;;7.60;45.61;99919.41;5072759;28;20193;-57
2022/01/17 08:57:14;;;;;;;11.63;7.95;;;;;;;7.53;45.78;99863.72;5070029;28;20477;-57
2022/01/17 08:59:41;;;;;;;9.67;6.17;;;;;;;7.91;45.00;99871.81;5072271;28;20199;-57
2022/01/17 09:02:08;;;;;;;12.77;7.17;;;;;;;7.97;44.80;99883.09;5071788;28;20245;-56
2022/01/17 09:04:40;;;;;;;13.53;6.83;;;;;;;8.12;44.24;99857.16;5072759;28;20285;-57
2022/01/17 09:07:08;;;;;;;9.50;6.60;;;;;;;8.16;43.14;99889.69;5072699;28;20252;-57
2022/01/17 09:09:35;;;;;;;10.10;7.00;;;;;;;8.25;42.63;99885.75;5071167;28;20219;-56
2022/01/17 09:12:04;;;;;;;12.03;7.17;;;;;;;8.28;42.81;99857.72;5072206;28;21102;-57
2022/01/17 09:14:30;;;;;;;11.77;6.93;;;;;;;8.36;42.74;99842.59;5072512;28;20180;-56
2022/01/17 09:16:57;;;;;;;11.00;6.53;;;;;;;8.43;42.25;99833.41;5072041;28;20285;-56
2022/01/17 09:19:24;;;;;;;11.30;6.83;;;;;;;8.59;41.31;99836.47;5072153;28;20197;-56
2022/01/17 09:21:51;;;;;;;14.10;8.27;;;;;;;8.56;41.59;99818.44;5072424;28;20193;-57
2022/01/17 09:24:18;;;;;;;13.37;7.70;;;;;;;8.66;41.50;99847.75;5071891;28;20200;-57
2022/01/17 09:26:46;;;;;;;15.33;7.30;;;;;;;8.68;41.43;99872.56;5071915;28;20190;-57
2022/01/17 09:29:14;;;;;;;12.17;6.50;;;;;;;8.74;41.51;99869.31;5071744;28;20668;-56
2022/01/17 09:31:41;;;;;;;19.60;7.47;;;;;;;8.81;41.55;99869.56;5071467;28;20720;-57
2022/01/17 09:34:08;;;;;;;11.85;7.78;;;;;;;8.88;40.94;99842.41;5071415;28;20441;-57
2022/01/17 09:36:35;;;;;;;12.40;6.87;;;;;;;8.92;41.04;99857.06;5072248;28;20199;-57
2022/01/17 09:39:03;;;;;;;11.70;7.20;;;;;;;9.03;40.52;99849.69;5072054;28;20281;-57
2022/01/17 09:41:31;;;;;;;7.90;6.80;;;;;;;9.13;40.51;99842.28;5072099;28;20194;-56
2022/01/17 09:43:58;;;;;;;10.77;7.07;;;;;;;9.17;40.96;99830.41;5072630;28;20194;-57
2022/01/17 09:46:33;;;;;;;9.00;6.90;;;;;;;9.22;41.11;99832.28;5071184;28;20202;-58
2022/01/17 09:49:12;;;;;;;12.45;7.82;;;;;;;9.32;40.83;99835.94;5072064;28;20507;-56
2022/01/17 09:52:04;;;;;;;7.23;5.77;;;;;;;9.42;40.69;99825.13;5071864;28;20253;-57
2022/01/17 09:54:35;;;;;;;10.93;5.93;;;;;;;9.49;40.52;99809.03;5071401;28;20195;-56
2022/01/17 09:57:06;;;;;;;7.33;5.87;;;;;;;9.58;40.74;99811.84;5071480;28;20263;-57
2022/01/17 09:59:34;;;;;;;7.10;5.60;;;;;;;9.61;40.62;99808.50;5071714;28;20210;-57
2022/01/17 10:02:03;;;;;;;8.43;5.97;;;;;;;9.66;40.77;99812.91;5071439;28;20646;-57
2022/01/17 10:04:30;;;;;;;9.10;5.73;;;;;;;9.73;40.90;99799.38;5071507;28;20669;-57
2022/01/17 10:06:59;;;;;;;7.30;4.97;;;;;;;9.68;40.40;99783.03;5071409;28;20200;-57
2022/01/17 10:09:29;;;;;;;10.23;5.23;;;;;;;9.79;41.00;99790.97;5071686;28;20278;-58
2022/01/17 10:12:05;;;;;;;11.97;7.50;;;;;;;9.89;40.79;99798.03;5071453;28;20620;-58
2022/01/17 10:14:36;;;;;;;6.80;5.30;;;;;;;9.92;40.71;99793.84;5071727;28;20230;-58
2022/01/17 10:17:07;;;;;;;7.03;5.17;;;;;;;9.92;41.04;99773.31;5071311;28;20197;-56
2022/01/17 10:19:34;;;;;;;9.90;6.17;;;;;;;9.99;40.60;99766.66;5071226;28;20191;-56
2022/01/17 10:22:08;;;;;;;8.00;6.10;;;;;;;9.99;40.25;99748.69;5070870;28;20285;-58
2022/01/17 10:24:42;;;;;;;10.97;5.80;;;;;;;10.03;40.36;99723.09;5070786;28;20186;-58
2022/01/17 10:27:25;;;;;;;9.63;5.43;;;;;;;10.04;39.84;99726.53;5069549;28;20178;-56
2022/01/17 10:30:19;;;;;;;12.67;5.50;;;;;;;10.09;39.47;99720.69;5070636;28;20284;-57
2022/01/17 10:35:34;;;;;;;10.83;5.47;;;;;;;10.13;39.07;99725.91;5059914;28;20199;-57
2022/01/17 10:38:05;;;;;;;8.38;5.88;;;;;;;10.13;38.91;99716.53;5070074;28;20819;-57
2022/01/17 10:40:34;;;;;;;8.57;5.23;;;;;;;10.27;37.66;99732.22;5070779;28;20638;-57
2022/01/17 10:43:04;;;;;;;6.50;5.17;;;;;;;10.27;37.91;99730.53;5070526;28;20327;-57
2022/01/17 10:45:39;;;;;;;8.00;5.03;;;;;;;10.32;38.12;99710.94;5070151;28;20243;-56
2022/01/17 10:48:08;;;;;;;8.07;5.87;;;;;;;10.34;37.74;99710.94;5070570;28;20277;-56
2022/01/17 10:50:38;;;;;;;8.73;5.33;;;;;;;10.43;37.30;99717.16;5070870;28;20716;-56
2022/01/17 10:53:09;;;;;;;7.10;5.57;;;;;;;10.46;37.32;99721.47;5071049;28;20194;-57
2022/01/17 10:55:39;;;;;;;9.70;5.27;;;;;;;10.30;37.40;99706.59;5071089;28;20302;-57
2022/01/17 10:58:09;;;;;;;6.17;4.83;;;;;;;10.49;37.50;99721.56;5069424;28;20191;-57
2022/01/17 11:00:38;;;;;;;12.07;5.83;;;;;;;10.58;37.92;99739.69;5064515;28;20179;-58
2022/01/17 11:03:08;;;;;;;11.13;5.20;;;;;;;10.74;37.03;99746.03;5069595;28;20204;-57
2022/01/17 11:05:36;;;;;;;6.77;5.83;;;;;;;10.81;38.28;99766.72;5069306;28;20676;-57
2022/01/17 11:08:03;;;;;;;10.07;5.70;;;;;;;10.71;40.13;99775.09;5069470;28;20274;-57
2022/01/17 11:10:32;;;;;;;8.17;6.17;;;;;;;10.66;41.25;99774.13;5069823;28;20218;-57
2022/01/17 11:13:02;;;;;;;8.60;5.37;;;;;;;10.51;41.93;99748.13;5068052;28;20189;-57
2022/01/17 11:15:32;;;;;;;6.67;5.10;;;;;;;10.48;41.55;99742.91;5070319;28;20187;-57
2022/01/17 11:18:03;;;;;;;10.10;5.03;;;;;;;10.55;41.54;99737.94;5070579;28;20276;-57
2022/01/17 11:20:33;;;;;;;8.23;5.40;;;;;;;10.65;40.82;99739.88;5069714;28;20175;-57
2022/01/17 11:23:01;;;;;;;7.97;4.90;;;;;;;10.66;40.52;99735.56;5067119;28;20188;-57
2022/01/17 11:25:31;;;;;;;7.63;5.23;;;;;;;10.68;41.40;99727.06;5069980;28;20211;-57
2022/01/17 11:27:59;;;;;;;10.87;5.53;;;;;;;10.69;37.95;99740.78;5070182;28;20239;-56
2022/01/17 11:30:27;;;;;;;6.27;4.57;;;;;;;10.77;35.78;99728.09;5069964;28;20724;-56
2022/01/17 11:32:56;;;;;;;6.90;4.73;;;;;;;10.75;36.10;99724.59;5069856;28;20269;-57
2022/01/17 11:35:25;;;;;;;10.40;4.30;;;;;;;10.82;36.11;99729.03;5069823;28;20739;-57
2022/01/17 11:37:56;;;;;;;11.70;5.63;;;;;;;10.88;35.83;99759.97;5069952;28;20195;-57
2022/01/17 11:40:28;;;;;;;6.13;4.77;;;;;;;11.02;35.11;99722.53;5070069;28;20194;-58
2022/01/17 11:42:55;;;;;;;7.53;4.80;;;;;;;10.94;35.50;99727.56;5069866;28;20278;-57